createdAt,value
2018-09-28T00:01:50.769Z,79.91
2018-09-28T00:04:20.566Z,80.08
2018-09-28T00:06:50.369Z,80.35
2018-09-28T00:09:20.229Z,80.73
2018-09-28T00:11:50.131Z,80.99
2018-09-28T00:14:20.447Z,80.85
2018-09-28T00:16:50.321Z,81.40
2018-09-28T00:19:20.299Z,81.18
2018-09-28T00:21:50.142Z,81.27
2018-09-28T00:24:20.777Z,81.24
2018-09-28T00:26:50.640Z,81.29
2018-09-28T00:29:20.457Z,81.71
2018-09-28T00:31:50.393Z,81.84
2018-09-28T00:34:20.231Z,81.56
2018-09-28T00:36:50.299Z,80.89
2018-09-28T00:39:20.375Z,80.06
2018-09-28T00:41:50.263Z,80.50
2018-09-28T00:44:20.223Z,80.50
2018-09-28T00:46:50.106Z,80.66
2018-09-28T00:49:20.126Z,80.93
2018-09-28T00:51:50.108Z,80.88
2018-09-28T00:54:19.980Z,81.46
2018-09-28T00:56:49.825Z,81.86
2018-09-28T00:59:19.667Z,82.00
2018-09-28T01:01:49.724Z,82.78
2018-09-28T01:04:19.526Z,82.65
2018-09-28T01:06:49.327Z,82.98
2018-09-28T01:09:19.290Z,82.58
2018-09-28T01:11:49.099Z,82.68
2018-09-28T01:14:18.919Z,82.43
2018-09-28T01:16:48.769Z,82.50
2018-09-28T01:19:18.649Z,82.66
2018-09-28T01:21:48.462Z,82.49
2018-09-28T01:24:18.622Z,82.51
2018-09-28T01:26:48.487Z,82.73
2018-09-28T01:29:18.290Z,82.29
2018-09-28T01:31:48.178Z,82.52
2018-09-28T01:34:18.163Z,81.97
2018-09-28T01:36:47.997Z,82.01
2018-09-28T01:39:17.887Z,82.65
2018-09-28T01:41:47.672Z,82.17
2018-09-28T01:44:17.572Z,82.43
2018-09-28T01:46:47.383Z,81.79
2018-09-28T01:49:17.174Z,81.95
2018-09-28T01:51:47.023Z,82.08
2018-09-28T01:54:16.862Z,82.02
2018-09-28T01:56:46.710Z,81.98
2018-09-28T01:59:16.635Z,81.48
2018-09-28T02:01:46.526Z,82.16
2018-09-28T02:04:16.354Z,82.05
2018-09-28T02:06:46.188Z,82.56
2018-09-28T02:09:16.096Z,82.62
2018-09-28T02:11:45.944Z,82.88
2018-09-28T02:14:15.816Z,82.50
2018-09-28T02:16:45.671Z,82.73
2018-09-28T02:19:15.546Z,83.06
2018-09-28T02:21:45.400Z,83.11
2018-09-28T02:24:15.320Z,83.17
2018-09-28T02:26:45.116Z,83.66
2018-09-28T02:29:14.922Z,84.04
2018-09-28T02:31:44.875Z,84.23
2018-09-28T02:34:14.672Z,83.42
2018-09-28T02:36:44.506Z,83.59
2018-09-28T02:39:14.346Z,83.79
2018-09-28T02:41:44.140Z,83.92
2018-09-28T02:45:43.400Z,83.82
2018-09-28T02:48:13.560Z,83.95
2018-09-28T02:50:43.328Z,84.08
2018-09-28T02:53:18.080Z,84.30
2018-09-28T02:55:49.586Z,83.90
2018-09-28T02:58:19.471Z,84.13
2018-09-28T03:00:49.329Z,84.45
2018-09-28T03:03:19.208Z,84.26
2018-09-28T03:05:49.008Z,84.44
2018-09-28T03:08:18.939Z,84.34
2018-09-28T03:10:48.757Z,84.05
2018-09-28T03:13:18.626Z,84.27
2018-09-28T03:15:48.628Z,84.16
2018-09-28T03:18:18.431Z,84.09
2018-09-28T03:20:48.325Z,84.33
2018-09-28T03:23:18.211Z,84.10
2018-09-28T03:25:48.301Z,83.52
2018-09-28T03:28:18.247Z,84.08
2018-09-28T03:30:48.067Z,83.50
2018-09-28T03:33:17.864Z,84.09
2018-09-28T03:35:47.741Z,83.96
2018-09-28T03:38:17.624Z,83.46
2018-09-28T03:40:47.396Z,83.37
2018-09-28T03:43:17.272Z,83.94
2018-09-28T03:45:47.100Z,83.80
2018-09-28T03:48:16.919Z,84.30
2018-09-28T03:50:46.741Z,84.98
2018-09-28T03:53:16.571Z,84.41
2018-09-28T03:55:46.401Z,84.58
2018-09-28T03:58:16.223Z,84.89
2018-09-28T04:00:46.145Z,85.03
2018-09-28T04:03:15.956Z,84.79
2018-09-28T04:05:45.755Z,84.84
2018-09-28T04:08:15.577Z,84.73
2018-09-28T04:10:45.431Z,84.88
2018-09-28T04:13:15.268Z,84.49
2018-09-28T04:15:45.096Z,84.37
2018-09-28T04:18:14.901Z,83.78
2018-09-28T04:20:44.735Z,84.51
2018-09-28T04:23:14.761Z,84.17
2018-09-28T04:25:44.627Z,84.33
2018-09-28T04:28:14.459Z,83.97
2018-09-28T04:30:44.299Z,83.85
2018-09-28T04:33:14.205Z,83.76
2018-09-28T04:35:44.011Z,84.05
2018-09-28T04:38:13.885Z,84.53
2018-09-28T04:40:43.772Z,84.54
2018-09-28T04:43:13.567Z,84.87
2018-09-28T04:45:43.566Z,84.81
2018-09-28T04:48:13.549Z,84.72
2018-09-28T04:50:43.341Z,84.72
2018-09-28T04:53:13.211Z,84.73
2018-09-28T04:55:43.023Z,84.91
2018-09-28T04:58:13.056Z,84.78
2018-09-28T05:00:42.932Z,84.98
2018-09-28T05:03:12.769Z,84.80
2018-09-28T05:05:42.626Z,84.99
2018-09-28T05:08:12.423Z,84.97
2018-09-28T05:10:42.394Z,84.92
2018-09-28T05:13:12.203Z,84.88
2018-09-28T05:15:42.220Z,84.91
2018-09-28T05:18:12.093Z,85.02
2018-09-28T05:20:41.895Z,84.67
2018-09-28T05:23:11.846Z,84.82
2018-09-28T05:25:41.698Z,84.86
2018-09-28T05:28:11.559Z,84.52
2018-09-28T05:30:44.966Z,84.90
2018-09-28T05:33:11.436Z,84.70
2018-09-28T05:35:41.276Z,84.48
2018-09-28T05:38:11.140Z,84.46
2018-09-28T05:40:41.246Z,84.20
2018-09-28T05:43:11.088Z,84.34
2018-09-28T05:45:40.981Z,84.52
2018-09-28T05:48:10.809Z,84.60
2018-09-28T05:50:40.773Z,84.25
2018-09-28T05:53:10.803Z,84.44
2018-09-28T05:55:40.792Z,84.55
2018-09-28T05:58:15.771Z,84.36
2018-09-28T06:00:50.672Z,84.00
2018-09-28T06:03:22.412Z,83.71
2018-09-28T06:06:00.724Z,83.57
2018-09-28T06:08:31.032Z,83.37
2018-09-28T06:11:00.857Z,83.16
2018-09-28T06:13:30.686Z,82.95
2018-09-28T06:16:00.520Z,82.74
2018-09-28T06:18:30.384Z,83.11
2018-09-28T06:21:00.469Z,83.66
2018-09-28T06:23:30.234Z,83.05
2018-09-28T06:25:59.997Z,83.09
2018-09-28T06:28:29.929Z,82.78
2018-09-28T06:30:59.721Z,82.63
2018-09-28T06:33:29.499Z,82.97
2018-09-28T06:35:59.355Z,82.81
2018-09-28T06:38:29.339Z,82.64
2018-09-28T06:40:59.111Z,82.29
2018-09-28T06:43:28.870Z,82.26
2018-09-28T06:45:58.624Z,82.04
2018-09-28T06:48:28.388Z,81.71
2018-09-28T06:50:58.180Z,81.84
2018-09-28T06:53:28.285Z,82.02
2018-09-28T06:55:58.086Z,82.13
2018-09-28T06:58:27.862Z,82.08
2018-09-28T07:00:57.612Z,82.23
2018-09-28T07:03:27.358Z,82.20
2018-09-28T07:05:57.138Z,81.53
2018-09-28T07:08:27.139Z,81.06
2018-09-28T07:10:57.026Z,80.15
2018-09-28T07:13:26.798Z,78.63
2018-09-28T07:15:56.584Z,78.25
2018-09-28T07:18:26.445Z,76.45
2018-09-28T07:20:56.386Z,75.35
2018-09-28T07:23:26.127Z,73.14
2018-09-28T07:25:56.020Z,67.45
2018-09-28T07:28:25.816Z,63.30
2018-09-28T07:30:55.596Z,61.06
2018-09-28T07:33:25.333Z,58.24
2018-09-28T07:35:55.123Z,55.82
2018-09-28T07:38:25.142Z,52.71
2018-09-28T07:40:55.481Z,50.88
2018-09-28T07:44:55.234Z,49.50
2018-09-28T07:47:25.576Z,46.32
2018-09-28T07:49:55.922Z,44.57
2018-09-28T07:52:26.271Z,42.12
2018-09-28T07:54:56.648Z,41.97
2018-09-28T07:57:27.004Z,42.35
2018-09-28T07:59:57.407Z,42.36
2018-09-28T08:02:27.698Z,42.55
2018-09-28T08:04:58.323Z,43.36
2018-09-28T08:07:28.661Z,44.38
2018-09-28T08:09:59.001Z,46.38
2018-09-28T08:12:29.349Z,48.37
2018-09-28T08:14:59.695Z,49.19
2018-09-28T08:17:30.074Z,50.58
2018-09-28T08:20:00.469Z,51.88
2018-09-28T08:22:30.794Z,53.62
2018-09-28T08:25:01.199Z,57.65
2018-09-28T08:27:31.553Z,62.87
2018-09-28T08:30:01.549Z,68.53
2018-09-28T08:32:31.319Z,70.62
2018-09-28T08:35:01.175Z,71.23
2018-09-28T08:37:30.952Z,71.79
2018-09-28T08:40:00.717Z,72.02
2018-09-28T08:42:30.523Z,72.64
2018-09-28T08:45:00.295Z,72.86
2018-09-28T08:47:30.121Z,72.77
2018-09-28T08:49:59.946Z,71.47
2018-09-28T08:52:29.683Z,71.56
2018-09-28T08:54:59.433Z,71.39
2018-09-28T08:57:29.181Z,70.54
2018-09-28T08:59:59.055Z,70.74
2018-09-28T09:02:28.858Z,69.61
2018-09-28T09:04:58.675Z,68.74
2018-09-28T09:07:28.434Z,67.19
2018-09-28T09:09:58.255Z,66.72
2018-09-28T09:12:28.039Z,65.79
2018-09-28T09:14:57.901Z,64.08
2018-09-28T09:17:27.745Z,62.28
2018-09-28T09:19:58.073Z,60.91
2018-09-28T09:22:28.418Z,61.57
2018-09-28T09:24:58.795Z,62.48
2018-09-28T09:27:29.272Z,61.77
2018-09-28T09:29:59.644Z,62.91
2018-09-28T09:32:29.677Z,63.66
2018-09-28T09:35:00.057Z,63.85
2018-09-28T09:37:30.447Z,64.18
2018-09-28T09:40:00.842Z,64.10
2018-09-28T09:42:30.641Z,64.58
2018-09-28T09:45:00.627Z,64.43
2018-09-28T09:47:31.007Z,64.06
2018-09-28T09:50:00.773Z,63.45
2018-09-28T09:52:30.533Z,63.64
2018-09-28T09:55:00.910Z,63.31
2018-09-28T09:57:31.247Z,61.39
2018-09-28T10:00:01.672Z,61.57
2018-09-28T10:02:37.521Z,60.10
2018-09-28T10:05:07.916Z,60.26
2018-09-28T10:07:38.251Z,60.31
2018-09-28T10:10:08.659Z,60.45
2018-09-28T10:12:39.092Z,58.54
2018-09-28T10:15:09.588Z,58.11
2018-09-28T10:17:39.938Z,58.08
2018-09-28T10:20:10.337Z,57.45
2018-09-28T10:22:40.937Z,56.96
2018-09-28T10:25:11.337Z,57.00
2018-09-28T10:27:41.777Z,56.69
2018-09-28T10:30:12.690Z,58.45
2018-09-28T10:32:43.032Z,58.32
2018-09-28T10:35:13.781Z,57.59
2018-09-28T10:37:44.172Z,58.03
2018-09-28T10:40:14.642Z,57.80
2018-09-28T10:42:45.153Z,56.02
2018-09-28T10:45:15.595Z,54.70
2018-09-28T10:47:46.106Z,54.88
2018-09-28T10:50:16.515Z,54.08
2018-09-28T10:52:47.041Z,54.88
2018-09-28T10:55:17.502Z,55.23
2018-09-28T10:57:47.876Z,54.62
2018-09-28T11:00:18.341Z,52.35
2018-09-28T11:02:48.834Z,51.83
2018-09-28T11:05:19.278Z,48.31
2018-09-28T11:07:49.654Z,48.31
2018-09-28T11:10:20.224Z,47.01
2018-09-28T11:12:50.822Z,48.47
2018-09-28T11:15:21.165Z,45.62
2018-09-28T11:17:51.721Z,44.24
2018-09-28T11:20:22.094Z,45.32
2018-09-28T11:22:53.322Z,44.98
2018-09-28T11:25:23.634Z,45.15
2018-09-28T11:27:54.005Z,43.82
2018-09-28T11:30:24.351Z,44.56
2018-09-28T11:32:54.651Z,43.80
2018-09-28T11:35:25.090Z,42.83
2018-09-28T11:37:55.435Z,42.36
2018-09-28T11:40:25.896Z,41.81
2018-09-28T11:42:56.286Z,41.94
2018-09-28T11:45:26.942Z,40.54
2018-09-28T11:47:57.388Z,40.88
2018-09-28T11:50:27.818Z,40.16
2018-09-28T11:52:58.256Z,40.24
2018-09-28T11:55:28.668Z,40.28
2018-09-28T11:58:16.915Z,39.49
2018-09-28T12:00:47.328Z,38.93
2018-09-28T12:03:17.698Z,37.98
2018-09-28T12:05:48.254Z,39.42
2018-09-28T12:08:18.624Z,37.63
2018-09-28T12:10:48.963Z,39.10
2018-09-28T12:13:19.564Z,40.49
2018-09-28T12:15:50.265Z,39.68
2018-09-28T12:18:20.770Z,39.58
2018-09-28T12:20:51.310Z,40.05
2018-09-28T12:23:21.736Z,41.03
2018-09-28T12:25:52.140Z,40.89
2018-09-28T12:28:22.444Z,41.33
2018-09-28T12:30:52.867Z,41.36
2018-09-28T12:33:23.310Z,41.31
2018-09-28T12:35:54.087Z,41.35
2018-09-28T12:38:24.538Z,42.27
2018-09-28T12:40:54.882Z,42.05
2018-09-28T12:43:25.244Z,41.91
2018-09-28T12:45:56.121Z,42.28
2018-09-28T12:48:26.505Z,41.89
2018-09-28T12:50:57.029Z,42.20
2018-09-28T12:53:27.480Z,41.42
2018-09-28T12:55:58.047Z,42.66
2018-09-28T12:58:28.592Z,43.08
2018-09-28T13:00:59.053Z,42.29
2018-09-28T13:03:31.214Z,42.18
2018-09-28T13:06:01.589Z,42.94
2018-09-28T13:08:32.019Z,43.34
2018-09-28T13:11:02.584Z,43.66
2018-09-28T13:13:32.995Z,43.16
2018-09-28T13:16:03.394Z,42.29
2018-09-28T13:18:33.768Z,42.25
2018-09-28T13:21:04.365Z,42.17
2018-09-28T13:23:34.908Z,42.54
2018-09-28T13:26:05.282Z,41.74
2018-09-28T13:28:35.763Z,41.77
2018-09-28T13:31:06.135Z,42.88
2018-09-28T13:33:36.914Z,43.79
2018-09-28T13:36:07.843Z,43.68
2018-09-28T13:38:38.470Z,42.61
2018-09-28T13:41:09.315Z,41.73
2018-09-28T13:43:39.740Z,41.88
2018-09-28T13:46:10.135Z,42.49
2018-09-28T13:48:40.695Z,42.35
2018-09-28T13:51:11.235Z,41.47
2018-09-28T13:53:41.669Z,41.96
2018-09-28T13:56:12.245Z,42.80
2018-09-28T13:58:42.967Z,42.35
2018-09-28T14:01:13.437Z,41.60
2018-09-28T14:03:43.808Z,42.98
2018-09-28T14:06:14.235Z,41.86
2018-09-28T14:08:44.812Z,42.92
2018-09-28T14:12:16.127Z,42.22
2018-09-28T14:14:46.769Z,42.74
2018-09-28T14:17:17.273Z,40.37
2018-09-28T14:19:47.703Z,41.12
2018-09-28T14:22:18.186Z,41.97
2018-09-28T14:24:48.725Z,41.76
2018-09-28T14:27:19.295Z,41.58
2018-09-28T14:29:49.630Z,41.59
2018-09-28T14:32:20.051Z,41.89
2018-09-28T14:34:50.718Z,41.90
2018-09-28T14:37:21.197Z,42.28
2018-09-28T14:39:51.587Z,41.20
2018-09-28T14:42:21.965Z,41.24
2018-09-28T14:44:52.542Z,40.98
2018-09-28T14:47:23.141Z,41.02
2018-09-28T14:49:53.513Z,40.91
2018-09-28T14:52:23.961Z,42.06
2018-09-28T14:54:54.605Z,41.14
2018-09-28T14:57:25.133Z,41.54
2018-09-28T14:59:55.481Z,39.96
2018-09-28T15:02:26.016Z,40.42
2018-09-28T15:04:56.531Z,40.46
2018-09-28T15:07:26.862Z,40.42
2018-09-28T15:09:57.381Z,42.34
2018-09-28T15:12:27.843Z,41.32
2018-09-28T15:14:58.437Z,40.74
2018-09-28T15:17:28.765Z,41.59
2018-09-28T15:19:59.148Z,40.92
2018-09-28T15:22:29.501Z,41.66
2018-09-28T15:24:59.864Z,42.14
2018-09-28T15:27:30.243Z,42.15
2018-09-28T15:30:00.641Z,41.53
2018-09-28T15:32:31.024Z,41.69
2018-09-28T15:35:01.390Z,41.71
2018-09-28T15:37:31.931Z,42.27
2018-09-28T15:40:02.318Z,42.51
2018-09-28T15:42:32.699Z,42.39
2018-09-28T15:45:03.464Z,42.60
2018-09-28T15:47:33.865Z,42.59
2018-09-28T15:50:04.398Z,42.99
2018-09-28T15:52:34.752Z,43.46
2018-09-28T15:55:05.098Z,43.68
2018-09-28T15:57:35.490Z,43.30
2018-09-28T16:00:06.091Z,43.78
2018-09-28T16:02:36.548Z,43.83
2018-09-28T16:05:07.102Z,43.85
2018-09-28T16:07:37.442Z,43.88
2018-09-28T16:10:07.861Z,44.42
2018-09-28T16:12:38.289Z,44.28
2018-09-28T16:15:08.706Z,44.89
2018-09-28T16:17:39.098Z,45.71
2018-09-28T16:20:09.840Z,47.37
2018-09-28T16:22:40.386Z,47.98
2018-09-28T16:25:10.802Z,48.64
2018-09-28T16:27:41.174Z,48.97
2018-09-28T16:30:11.586Z,49.54
2018-09-28T16:32:41.982Z,50.75
2018-09-28T16:35:12.420Z,50.90
2018-09-28T16:37:42.872Z,51.39
2018-09-28T16:40:13.360Z,51.37
2018-09-28T16:42:43.730Z,51.72
2018-09-28T16:45:14.108Z,52.31
2018-09-28T16:47:44.726Z,52.94
2018-09-28T16:50:15.120Z,52.59
2018-09-28T16:52:45.546Z,52.40
2018-09-28T16:55:15.922Z,53.02
2018-09-28T16:57:46.461Z,53.01
2018-09-28T17:00:17.136Z,53.33
2018-09-28T17:02:47.597Z,53.48
2018-09-28T17:05:18.032Z,53.43
2018-09-28T17:07:48.519Z,52.92
2018-09-28T17:10:24.212Z,53.48
2018-09-28T17:12:54.671Z,54.99
2018-09-28T17:15:25.102Z,54.91
2018-09-28T17:17:55.477Z,54.65
2018-09-28T17:20:25.930Z,54.99
2018-09-28T17:22:56.331Z,54.60
2018-09-28T17:25:26.699Z,54.21
2018-09-28T17:27:57.081Z,54.38
2018-09-28T17:30:27.492Z,54.00
2018-09-28T17:32:57.873Z,53.67
2018-09-28T17:35:28.265Z,53.97
2018-09-28T17:37:58.685Z,53.30
2018-09-28T17:40:29.089Z,52.90
2018-09-28T17:42:59.463Z,52.78
2018-09-28T17:45:30.401Z,52.52
2018-09-28T17:48:00.757Z,52.42
2018-09-28T17:50:31.135Z,53.00
2018-09-28T17:53:01.513Z,52.94
2018-09-28T17:55:31.893Z,52.70
2018-09-28T17:58:02.300Z,52.64
2018-09-28T18:00:32.713Z,52.39
2018-09-28T18:03:03.083Z,51.31
2018-09-28T18:05:33.494Z,51.99
2018-09-28T18:08:04.045Z,51.25
2018-09-28T18:10:34.444Z,51.91
2018-09-28T18:13:04.912Z,52.26
2018-09-28T18:15:35.352Z,51.91
2018-09-28T18:18:05.791Z,51.37
2018-09-28T18:20:36.202Z,51.80
2018-09-28T18:23:06.069Z,52.64
2018-09-28T18:25:36.402Z,51.73
2018-09-28T18:28:06.415Z,51.39
2018-09-28T18:30:36.198Z,51.46
2018-09-28T18:33:06.680Z,51.61
2018-09-28T18:35:37.012Z,50.76
2018-09-28T18:38:06.841Z,50.46
2018-09-28T18:40:36.778Z,50.87
2018-09-28T18:43:06.769Z,50.92
2018-09-28T18:45:36.571Z,50.91
2018-09-28T18:48:06.528Z,51.12
2018-09-28T18:50:36.847Z,51.43
2018-09-28T18:53:07.263Z,51.11
2018-09-28T18:55:37.031Z,51.13
2018-09-28T18:58:07.055Z,49.27
2018-09-28T19:00:36.911Z,48.93
2018-09-28T19:03:06.789Z,47.56
2018-09-28T19:05:36.839Z,47.00
2018-09-28T19:08:06.961Z,47.43
2018-09-28T19:10:36.853Z,47.68
2018-09-28T19:13:06.670Z,47.13
2018-09-28T19:15:36.647Z,47.04
2018-09-28T19:18:06.486Z,47.23
2018-09-28T19:20:36.299Z,46.91
2018-09-28T19:23:06.129Z,46.61
2018-09-28T19:25:35.934Z,46.78
2018-09-28T19:28:05.803Z,46.97
2018-09-28T19:30:35.600Z,46.97
2018-09-28T19:33:05.595Z,47.63
2018-09-28T19:35:35.377Z,47.53
2018-09-28T19:38:05.216Z,46.99
2018-09-28T19:40:35.120Z,47.48
2018-09-28T19:43:04.912Z,47.69
2018-09-28T19:45:34.773Z,47.45
2018-09-28T19:48:04.616Z,47.54
2018-09-28T19:50:34.417Z,47.24
2018-09-28T19:53:04.253Z,47.91
2018-09-28T19:55:34.092Z,48.85
2018-09-28T19:58:03.978Z,48.65
2018-09-28T20:00:33.850Z,49.07
2018-09-28T20:03:03.635Z,48.99
2018-09-28T20:05:33.451Z,48.52
2018-09-28T20:08:03.293Z,47.61
2018-09-28T20:10:33.131Z,48.21
2018-09-28T20:13:02.964Z,49.03
2018-09-28T20:15:32.975Z,48.52
2018-09-28T20:18:02.900Z,48.80
2018-09-28T20:20:32.779Z,48.31
2018-09-28T20:23:02.569Z,49.21
2018-09-28T20:25:32.483Z,48.72
2018-09-28T20:28:02.389Z,48.66
2018-09-28T20:30:32.179Z,49.18
2018-09-28T20:33:02.030Z,49.15
2018-09-28T20:35:31.825Z,49.22
2018-09-28T20:38:01.616Z,49.78
2018-09-28T20:40:31.464Z,50.08
2018-09-28T20:43:01.332Z,50.13
2018-09-28T20:45:31.200Z,51.24
2018-09-28T20:48:01.008Z,51.43
2018-09-28T20:50:31.195Z,51.82
2018-09-28T20:53:01.118Z,51.49
2018-09-28T20:55:31.154Z,52.27
2018-09-28T20:58:01.274Z,52.42
2018-09-28T21:00:31.144Z,53.47
2018-09-28T21:03:01.000Z,53.73
2018-09-28T21:05:30.855Z,53.57
2018-09-28T21:08:00.788Z,53.95
2018-09-28T21:10:30.684Z,54.43
2018-09-28T21:13:00.558Z,54.51
2018-09-28T21:15:30.434Z,55.05
2018-09-28T21:18:00.345Z,55.17
2018-09-28T21:20:30.231Z,55.41
2018-09-28T21:23:00.307Z,55.47
2018-09-28T21:25:30.118Z,55.72
2018-09-28T21:27:59.957Z,54.65
2018-09-28T21:30:29.787Z,55.33
2018-09-28T21:32:59.680Z,55.01
2018-09-28T21:35:29.521Z,54.77
2018-09-28T21:37:59.290Z,54.26
2018-09-28T21:44:05.244Z,54.83
2018-09-28T21:46:35.108Z,54.67
2018-09-28T21:49:04.956Z,55.04
2018-09-28T21:51:34.734Z,55.65
2018-09-28T21:54:04.578Z,55.34
2018-09-28T21:56:34.454Z,55.47
2018-09-28T21:59:04.285Z,55.23
2018-09-28T22:01:34.150Z,54.66
2018-09-28T22:04:03.926Z,55.52
2018-09-28T22:06:33.693Z,55.55
2018-09-28T22:09:03.661Z,55.55
2018-09-28T22:11:33.504Z,54.99
2018-09-28T22:14:03.342Z,55.33
2018-09-28T22:16:33.365Z,55.73
2018-09-28T22:19:03.266Z,55.18
2018-09-28T22:21:33.218Z,55.64
2018-09-28T22:24:03.019Z,55.98
2018-09-28T22:26:32.834Z,56.15
2018-09-28T22:29:02.707Z,56.34
2018-09-28T22:31:32.629Z,56.04
2018-09-28T22:34:02.611Z,56.52
2018-09-28T22:36:32.596Z,56.72
2018-09-28T22:39:02.457Z,56.16
2018-09-28T22:41:32.297Z,56.09
2018-09-28T22:44:02.128Z,56.18
2018-09-28T22:46:31.932Z,55.97
2018-09-28T22:49:01.717Z,56.31
2018-09-28T22:51:31.660Z,56.30
2018-09-28T22:54:01.441Z,56.18
2018-09-28T22:56:31.306Z,56.34
2018-09-28T22:59:01.155Z,56.01
2018-09-28T23:01:31.164Z,56.27
2018-09-28T23:04:00.940Z,56.67
2018-09-28T23:06:30.756Z,55.91
2018-09-28T23:09:00.562Z,57.03
2018-09-28T23:11:30.424Z,56.91
2018-09-28T23:14:00.225Z,56.61
2018-09-28T23:16:30.014Z,56.81
2018-09-28T23:18:59.828Z,57.88
2018-09-28T23:21:30.000Z,58.02
2018-09-28T23:24:01.358Z,58.86
2018-09-28T23:26:31.133Z,58.66
2018-09-28T23:29:00.925Z,59.02
2018-09-28T23:31:30.711Z,59.32
2018-09-28T23:34:00.563Z,59.44
2018-09-28T23:36:30.387Z,59.67
2018-09-28T23:39:00.221Z,60.62
2018-09-28T23:41:29.979Z,61.21
2018-09-28T23:43:59.811Z,62.30
2018-09-28T23:46:29.737Z,62.12
2018-09-28T23:48:59.480Z,63.23
2018-09-28T23:51:29.259Z,63.43
2018-09-28T23:53:59.001Z,63.85
2018-09-28T23:56:28.791Z,64.03
2018-09-28T23:58:58.785Z,63.68
